Time;durP1;ratioP1;P1;durP2;ratioP2;P2;SDS_P1;SDS_P2;PMS_P1;PMS_P2;Temp;Humidity;BMP_temperature;BMP_pressure;BME280_temperature;BME280_humidity;BME280_pressure;Samples;Min_cycle;Max_cycle;Signal;HPM_P1;HPM_P2
2022/05/18 00:01:08;;;;;;;11.18;8.95;;;18.70;99.90;;;;;;5030187;28;20037;-78
2022/05/18 00:03:38;;;;;;;18.67;9.48;;;18.70;99.80;;;;;;5030663;28;20017;-78
2022/05/18 00:06:07;;;;;;;17.98;10.30;;;18.60;99.90;;;;;;5030416;28;20076;-78
2022/05/18 00:08:38;;;;;;;17.35;10.52;;;18.60;99.90;;;;;;5012655;28;20049;-77
2022/05/18 00:11:11;;;;;;;13.75;9.30;;;18.60;99.90;;;;;;5012724;28;20107;-79
2022/05/18 00:13:37;;;;;;;14.40;10.43;;;18.50;99.90;;;;;;5029158;28;20025;-79
2022/05/18 00:16:06;;;;;;;16.50;10.10;;;18.50;99.90;;;;;;5012735;28;20029;-80
2022/05/18 00:18:33;;;;;;;16.60;9.00;;;18.50;99.90;;;;;;5030532;28;20027;-79
2022/05/18 00:21:00;;;;;;;17.65;9.45;;;18.60;99.90;;;;;;5030106;28;20349;-77
2022/05/18 00:23:26;;;;;;;18.25;10.38;;;18.40;99.90;;;;;;5029090;28;20044;-78
2022/05/18 00:25:52;;;;;;;15.55;9.73;;;18.50;99.90;;;;;;5030132;28;20034;-79
2022/05/18 00:28:18;;;;;;;14.82;10.38;;;18.50;99.90;;;;;;5029910;28;20533;-78
2022/05/18 00:30:43;;;;;;;14.10;10.48;;;18.50;99.90;;;;;;5029828;28;20025;-78
2022/05/18 00:33:10;;;;;;;13.55;10.20;;;18.50;99.90;;;;;;5013072;28;20014;-78
2022/05/18 00:35:38;;;;;;;16.05;10.82;;;18.50;99.90;;;;;;5012695;28;20037;-77
2022/05/18 00:38:04;;;;;;;14.15;10.57;;;18.40;99.90;;;;;;5030016;28;20040;-79
2022/05/18 00:40:30;;;;;;;15.77;10.95;;;18.50;99.90;;;;;;5012491;28;20033;-78
2022/05/18 00:42:56;;;;;;;14.40;10.07;;;18.40;99.90;;;;;;5029893;28;20021;-78
2022/05/18 00:45:22;;;;;;;17.33;11.20;;;18.40;99.90;;;;;;5033456;28;20104;-78
2022/05/18 00:47:48;;;;;;;16.08;10.50;;;18.40;99.90;;;;;;5033810;28;20085;-78
2022/05/18 00:50:24;;;;;;;14.60;10.65;;;18.40;99.90;;;;;;5033784;28;20384;-79
2022/05/18 00:52:58;;;;;;;18.40;11.35;;;18.40;99.90;;;;;;5049285;28;20041;-78
2022/05/18 00:55:25;;;;;;;18.40;10.95;;;18.30;99.90;;;;;;5033797;28;20033;-78
2022/05/18 00:58:15;;;;;;;16.45;10.73;;;18.30;99.90;;;;;;5033563;28;20053;-77
2022/05/18 01:00:42;;;;;;;15.57;10.95;;;18.20;99.90;;;;;;5024295;28;20036;-77
2022/05/18 01:03:26;;;;;;;13.43;10.20;;;18.20;99.90;;;;;;5033855;28;20021;-78
2022/05/18 01:06:04;;;;;;;17.77;10.50;;;18.30;99.90;;;;;;5033153;28;20029;-77
2022/05/18 01:08:47;;;;;;;15.77;9.80;;;18.20;99.90;;;;;;5033275;28;20040;-76
2022/05/18 01:11:13;;;;;;;14.65;10.73;;;18.20;99.90;;;;;;5033179;28;20034;-78
2022/05/18 01:13:39;;;;;;;17.92;10.65;;;18.20;99.90;;;;;;5031769;28;20037;-78
2022/05/18 01:16:05;;;;;;;16.58;11.52;;;18.10;99.90;;;;;;5033059;28;20059;-77
2022/05/18 01:18:32;;;;;;;16.63;10.85;;;18.10;99.90;;;;;;5033582;28;20057;-78
2022/05/18 01:20:57;;;;;;;16.67;11.05;;;18.10;99.90;;;;;;5032232;28;20033;-78
2022/05/18 01:23:32;;;;;;;12.68;9.85;;;18.10;99.90;;;;;;5033073;28;20082;-78
2022/05/18 01:26:10;;;;;;;14.60;10.88;;;18.20;99.90;;;;;;5032861;28;20364;-78
2022/05/18 01:28:40;;;;;;;18.50;10.70;;;18.20;99.90;;;;;;5033134;28;20025;-78
2022/05/18 01:31:05;;;;;;;13.75;10.60;;;18.20;99.90;;;;;;5015500;28;20026;-79
2022/05/18 01:33:32;;;;;;;12.73;10.52;;;18.10;99.90;;;;;;5016277;28;20040;-80
2022/05/18 01:35:58;;;;;;;14.05;9.95;;;18.20;99.90;;;;;;5023412;28;20045;-80
2022/05/18 01:38:23;;;;;;;16.90;11.48;;;18.30;99.90;;;;;;5012975;28;20379;-80
2022/05/18 01:41:08;;;;;;;17.92;11.02;;;18.30;99.90;;;;;;5013066;28;20095;-78
2022/05/18 01:43:51;;;;;;;15.52;11.13;;;18.30;99.90;;;;;;5012017;28;20076;-78
2022/05/18 01:46:18;;;;;;;16.27;10.52;;;18.30;99.90;;;;;;5012870;28;20029;-78
2022/05/18 01:48:47;;;;;;;16.92;11.82;;;18.30;99.90;;;;;;4995691;28;20451;-79
2022/05/18 01:51:21;;;;;;;16.58;12.40;;;18.20;99.90;;;;;;5013499;28;20030;-80
2022/05/18 01:53:46;;;;;;;15.60;11.25;;;18.00;99.90;;;;;;5012899;28;20052;-79
2022/05/18 01:56:12;;;;;;;18.73;11.82;;;18.00;99.90;;;;;;5011669;28;20038;-78
2022/05/18 01:58:38;;;;;;;20.08;12.27;;;18.00;99.90;;;;;;5012691;28;20022;-80
2022/05/18 02:01:06;;;;;;;16.08;11.23;;;18.10;99.90;;;;;;5012592;28;20298;-78
2022/05/18 02:03:32;;;;;;;17.75;12.05;;;18.10;99.90;;;;;;5012880;28;20029;-77
2022/05/18 02:05:57;;;;;;;17.85;12.18;;;18.00;99.90;;;;;;5012671;28;20037;-79
2022/05/18 02:08:23;;;;;;;16.17;12.35;;;18.10;99.90;;;;;;5012596;28;20022;-79
2022/05/18 02:10:49;;;;;;;25.17;13.23;;;18.00;99.90;;;;;;5012316;28;20443;-79
2022/05/18 02:13:16;;;;;;;19.33;12.65;;;18.10;99.90;;;;;;5012440;28;20355;-79
2022/05/18 02:15:42;;;;;;;16.75;12.13;;;18.00;99.90;;;;;;5012299;28;20022;-79
2022/05/18 02:18:08;;;;;;;17.02;11.95;;;18.00;99.90;;;;;;5012560;28;20118;-80
2022/05/18 02:20:34;;;;;;;21.75;12.30;;;17.90;99.90;;;;;;5012445;28;20062;-79
2022/05/18 02:23:01;;;;;;;20.73;12.40;;;17.80;99.90;;;;;;5027619;28;20042;-78
2022/05/18 02:25:26;;;;;;;20.38;13.10;;;17.90;99.90;;;;;;5012290;28;20112;-79
2022/05/18 02:27:54;;;;;;;20.77;12.55;;;17.90;99.90;;;;;;5012514;28;20105;-81
2022/05/18 02:30:21;;;;;;;17.77;11.60;;;17.80;99.90;;;;;;4995825;28;20030;-79
2022/05/18 02:32:47;;;;;;;21.65;13.05;;;17.90;99.90;;;;;;4997199;28;20073;-80
2022/05/18 02:35:13;;;;;;;15.48;11.82;;;17.90;99.90;;;;;;4995209;28;20483;-80
2022/05/18 02:37:39;;;;;;;19.05;12.10;;;17.90;99.90;;;;;;5012285;28;20030;-79
2022/05/18 02:40:07;;;;;;;17.45;12.23;;;17.90;99.90;;;;;;5012590;28;20026;-80
2022/05/18 02:42:32;;;;;;;;;;;17.90;99.90;;;;;;5013440;28;20018;-80
2022/05/18 02:44:58;;;;;;;20.35;11.90;;;17.80;99.90;;;;;;5028341;28;19919;-79
2022/05/18 02:47:24;;;;;;;15.75;12.27;;;17.90;99.90;;;;;;5012576;28;20030;-80
2022/05/18 02:49:51;;;;;;;18.63;12.93;;;17.70;99.90;;;;;;5029972;28;20104;-80
2022/05/18 02:52:17;;;;;;;19.60;12.23;;;17.80;99.90;;;;;;5014009;28;20060;-78
2022/05/18 02:57:27;;;;;;;18.35;11.82;;;17.80;99.90;;;;;;5017086;28;20052;-79
2022/05/18 02:59:53;;;;;;;17.48;12.13;;;17.80;99.90;;;;;;5019174;28;20125;-80
2022/05/18 03:02:19;;;;;;;21.58;12.00;;;17.80;99.90;;;;;;5012612;28;20427;-79
2022/05/18 03:04:45;;;;;;;16.60;11.60;;;17.80;99.90;;;;;;5012228;28;20416;-78
2022/05/18 03:07:10;;;;;;;18.77;11.75;;;17.70;99.90;;;;;;5011666;28;20121;-78
2022/05/18 03:09:36;;;;;;;18.60;12.10;;;17.60;99.90;;;;;;5012027;28;20448;-78
2022/05/18 03:12:04;;;;;;;16.40;12.15;;;17.70;99.90;;;;;;5011204;28;20037;-79
2022/05/18 03:14:29;;;;;;;20.30;13.13;;;17.70;99.90;;;;;;5011008;28;20030;-79
2022/05/18 03:16:55;;;;;;;16.73;12.07;;;17.70;99.90;;;;;;4993293;28;20110;-80
2022/05/18 03:19:23;;;;;;;18.48;11.90;;;17.70;99.90;;;;;;5026732;28;20376;-80
2022/05/18 03:24:32;;;;;;;19.92;12.23;;;17.80;99.90;;;;;;5011765;28;20092;-79
2022/05/18 03:26:58;;;;;;;16.27;11.07;;;17.80;99.90;;;;;;5011185;28;20540;-80
2022/05/18 03:29:24;;;;;;;19.33;11.98;;;17.70;99.90;;;;;;5011331;28;20022;-78
2022/05/18 03:31:49;;;;;;;19.35;11.35;;;17.70;99.90;;;;;;5011145;28;20128;-80
2022/05/18 03:34:15;;;;;;;18.90;11.80;;;17.80;99.90;;;;;;5026504;28;20032;-79
2022/05/18 03:36:41;;;;;;;15.65;11.52;;;17.70;99.90;;;;;;5010861;28;20032;-78
2022/05/18 03:39:07;;;;;;;19.67;12.23;;;17.70;99.90;;;;;;5011597;28;20060;-81
2022/05/18 03:41:36;;;;;;;21.65;12.60;;;17.70;99.90;;;;;;4993958;28;20030;-80
2022/05/18 03:44:03;;;;;;;17.77;12.15;;;17.60;99.90;;;;;;5011161;28;20116;-80
2022/05/18 03:46:29;;;;;;;16.30;12.13;;;17.70;99.90;;;;;;4993658;28;20025;-79
2022/05/18 03:48:54;;;;;;;17.90;12.35;;;17.80;99.90;;;;;;5011273;28;20034;-80
2022/05/18 03:51:20;;;;;;;18.52;12.25;;;17.80;99.90;;;;;;5026892;28;20029;-80
2022/05/18 03:53:47;;;;;;;17.80;11.98;;;17.90;99.90;;;;;;5010919;28;20041;-80
2022/05/18 03:56:14;;;;;;;18.88;12.40;;;17.90;99.90;;;;;;5011132;28;20064;-78
2022/05/18 03:58:40;;;;;;;21.30;11.57;;;17.80;99.90;;;;;;5010963;28;20030;-79
2022/05/18 04:01:10;;;;;;;19.20;12.48;;;17.80;99.90;;;;;;5011189;28;20030;-80
2022/05/18 04:03:46;;;;;;;21.15;12.65;;;17.90;99.90;;;;;;5011560;28;20438;-80
2022/05/18 04:06:13;;;;;;;19.85;13.10;;;17.90;99.90;;;;;;5011155;28;20037;-81
2022/05/18 04:08:38;;;;;;;19.20;13.05;;;17.90;99.90;;;;;;5010953;28;20048;-78
2022/05/18 04:11:07;;;;;;;19.65;11.95;;;17.80;99.90;;;;;;5010776;28;20487;-79
2022/05/18 04:13:33;;;;;;;18.65;12.55;;;17.80;99.90;;;;;;5010822;28;20117;-79
2022/05/18 04:15:59;;;;;;;23.48;12.55;;;17.80;99.90;;;;;;5010693;28;20113;-80
2022/05/18 04:18:25;;;;;;;21.63;12.00;;;17.80;99.90;;;;;;5011048;28;20103;-78
2022/05/18 04:20:53;;;;;;;19.40;12.68;;;17.90;99.90;;;;;;5014571;28;20026;-79
2022/05/18 04:23:19;;;;;;;19.38;12.40;;;17.80;99.90;;;;;;5014841;28;20491;-80
2022/05/18 04:25:45;;;;;;;16.63;12.30;;;17.80;99.90;;;;;;5014546;28;20037;-81
2022/05/18 04:28:14;;;;;;;16.60;12.10;;;17.90;99.90;;;;;;5014615;28;20037;-81
2022/05/18 04:30:43;;;;;;;18.23;11.70;;;17.90;99.90;;;;;;5014296;28;20101;-81
2022/05/18 04:33:10;;;;;;;21.23;13.02;;;17.90;99.90;;;;;;5015037;28;20042;-79
2022/05/18 04:35:35;;;;;;;16.48;12.60;;;17.90;99.90;;;;;;5014505;28;20030;-79
2022/05/18 04:38:01;;;;;;;16.90;12.02;;;17.90;99.90;;;;;;5014541;28;20462;-80
2022/05/18 04:40:27;;;;;;;18.65;12.43;;;17.90;99.90;;;;;;5014717;28;20026;-80
2022/05/18 04:42:52;;;;;;;20.48;13.10;;;17.90;99.90;;;;;;5014031;28;20053;-80
2022/05/18 04:45:21;;;;;;;19.25;12.63;;;17.90;99.90;;;;;;5014605;28;20025;-80
2022/05/18 04:47:47;;;;;;;15.68;11.57;;;17.90;99.90;;;;;;5014030;28;20038;-80
2022/05/18 04:50:13;;;;;;;18.08;13.20;;;17.90;99.90;;;;;;5013985;28;20045;-80
2022/05/18 04:52:38;;;;;;;22.33;13.13;;;17.90;99.90;;;;;;4996358;28;20053;-78
2022/05/18 04:55:05;;;;;;;18.90;13.15;;;17.90;99.90;;;;;;5013572;28;20341;-80
2022/05/18 04:57:31;;;;;;;21.70;13.43;;;17.90;99.90;;;;;;5013981;28;20045;-78
2022/05/18 04:59:56;;;;;;;20.23;13.57;;;17.90;99.90;;;;;;5014007;28;20038;-79
2022/05/18 05:02:22;;;;;;;16.10;12.05;;;17.90;99.90;;;;;;5012497;28;20500;-78
2022/05/18 05:04:47;;;;;;;20.17;12.95;;;17.90;99.90;;;;;;5013393;28;20115;-79
2022/05/18 05:07:13;;;;;;;18.85;13.15;;;17.90;99.90;;;;;;5013646;28;20029;-79
2022/05/18 05:09:39;;;;;;;17.90;12.63;;;17.90;99.90;;;;;;5013463;28;20037;-77
2022/05/18 05:12:06;;;;;;;20.45;12.32;;;17.90;99.90;;;;;;5014011;28;20076;-79
2022/05/18 05:14:35;;;;;;;17.23;11.80;;;17.90;99.90;;;;;;5013370;28;20507;-79
2022/05/18 05:17:01;;;;;;;17.88;12.68;;;17.90;99.90;;;;;;5013040;28;20127;-80
2022/05/18 05:19:26;;;;;;;17.70;11.68;;;18.00;99.90;;;;;;4995732;28;20026;-80
2022/05/18 05:21:52;;;;;;;19.40;12.80;;;18.00;99.90;;;;;;5013396;28;20510;-78
2022/05/18 05:24:18;;;;;;;26.67;14.10;;;18.00;99.90;;;;;;5014083;28;20018;-78
2022/05/18 05:26:44;;;;;;;19.65;13.27;;;18.00;99.90;;;;;;5013185;28;20112;-79
2022/05/18 05:29:12;;;;;;;29.38;19.95;;;17.90;99.90;;;;;;4995750;28;20057;-78
2022/05/18 05:31:38;;;;;;;29.63;15.50;;;18.00;99.90;;;;;;5012988;28;20098;-71
2022/05/18 05:34:04;;;;;;;22.23;13.45;;;18.00;99.90;;;;;;5012871;28;20243;-75
2022/05/18 05:36:31;;;;;;;21.42;14.27;;;18.10;99.90;;;;;;4995783;28;20054;-74
2022/05/18 05:38:57;;;;;;;23.77;14.10;;;18.20;99.90;;;;;;5012852;28;20045;-76
2022/05/18 05:41:24;;;;;;;19.55;13.32;;;18.20;99.90;;;;;;5012839;28;20037;-75
2022/05/18 05:43:50;;;;;;;19.58;13.07;;;18.30;99.90;;;;;;5028371;28;20065;-76
2022/05/18 05:46:17;;;;;;;17.33;12.68;;;18.50;99.90;;;;;;5012532;28;20052;-74
2022/05/18 05:48:45;;;;;;;22.60;13.13;;;18.60;99.90;;;;;;4995068;28;20026;-73
2022/05/18 05:51:13;;;;;;;19.42;12.60;;;18.70;99.90;;;;;;5012854;28;20113;-74
2022/05/18 05:53:46;;;;;;;16.42;11.93;;;18.90;99.90;;;;;;5028016;28;20038;-74
2022/05/18 05:56:14;;;;;;;22.65;11.63;;;19.10;99.90;;;;;;5012678;28;20436;-74
2022/05/18 05:58:40;;;;;;;;;;;19.50;99.90;;;;;;4995784;28;20042;-74
2022/05/18 06:01:08;;;;;;;17.13;10.60;;;19.80;99.90;;;;;;5012617;28;19913;-73
2022/05/18 06:03:35;;;;;;;18.17;11.60;;;20.00;99.30;;;;;;5028194;28;20033;-73
2022/05/18 06:06:02;;;;;;;14.45;10.00;;;20.20;98.80;;;;;;5012381;28;20054;-74
2022/05/18 06:08:32;;;;;;;12.35;10.02;;;20.20;98.50;;;;;;5012286;28;20453;-72
2022/05/18 06:10:59;;;;;;;13.93;9.40;;;20.20;98.40;;;;;;4994915;28;20030;-73
2022/05/18 06:13:25;;;;;;;24.75;17.00;;;20.20;98.40;;;;;;5012505;28;20030;-72
2022/05/18 06:15:51;;;;;;;14.68;11.13;;;20.10;98.40;;;;;;5012040;28;20327;-73
2022/05/18 06:18:16;;;;;;;12.60;9.07;;;20.20;98.50;;;;;;5012337;28;20030;-72
2022/05/18 06:20:44;;;;;;;18.73;9.60;;;20.20;98.50;;;;;;5011387;28;20121;-73
2022/05/18 06:23:10;;;;;;;;;;;20.30;98.50;;;;;;5012784;28;20033;-71
2022/05/18 06:25:36;;;;;;;15.15;9.95;;;20.50;98.50;;;;;;5012275;28;20075;-70
2022/05/18 06:28:06;;;;;;;15.18;9.23;;;20.60;98.10;;;;;;5011863;28;20041;-70
2022/05/18 06:30:32;;;;;;;12.23;8.40;;;20.70;98.00;;;;;;5012629;28;20538;-71
2022/05/18 06:32:57;;;;;;;17.73;8.50;;;20.80;98.00;;;;;;5011827;28;20057;-71
2022/05/18 06:35:23;;;;;;;12.40;8.07;;;20.90;97.70;;;;;;5010954;28;20360;-72
2022/05/18 06:37:49;;;;;;;15.80;10.48;;;20.90;97.50;;;;;;5011942;28;20455;-71
2022/05/18 06:40:15;;;;;;;20.52;13.00;;;21.00;97.40;;;;;;5011872;28;20037;-72
2022/05/18 06:42:41;;;;;;;13.85;8.00;;;21.10;97.50;;;;;;5010882;28;20433;-74
2022/05/18 06:45:11;;;;;;;10.85;6.93;;;21.30;97.40;;;;;;5012056;28;20030;-74
2022/05/18 06:47:36;;;;;;;8.18;5.80;;;21.40;97.10;;;;;;5027040;28;20038;-70
2022/05/18 06:50:06;;;;;;;10.23;6.57;;;21.60;96.30;;;;;;5011617;28;20030;-70
2022/05/18 06:52:32;;;;;;;8.35;6.18;;;21.70;96.00;;;;;;5011592;28;20046;-71
2022/05/18 06:54:57;;;;;;;8.60;5.38;;;21.70;95.60;;;;;;5011438;28;20115;-71
2022/05/18 06:57:23;;;;;;;10.10;5.10;;;21.70;95.60;;;;;;5011756;28;20071;-71
2022/05/18 06:59:49;;;;;;;9.15;5.55;;;21.60;95.60;;;;;;5011568;28;20030;-72
2022/05/18 07:02:15;;;;;;;7.97;5.22;;;21.70;95.60;;;;;;5011137;28;20026;-69
2022/05/18 07:04:40;;;;;;;9.70;5.32;;;21.80;95.70;;;;;;4993657;28;20065;-72
2022/05/18 07:07:06;;;;;;;10.07;5.00;;;21.90;95.30;;;;;;4993937;28;20029;-75
2022/05/18 07:09:32;;;;;;;7.47;5.22;;;22.00;95.20;;;;;;5011750;28;20037;-75
2022/05/18 07:11:57;;;;;;;15.50;9.10;;;22.00;95.20;;;;;;5011200;28;20485;-74
2022/05/18 07:14:26;;;;;;;13.80;9.18;;;22.10;95.30;;;;;;5010369;28;20103;-74
2022/05/18 07:16:52;;;;;;;8.13;5.00;;;22.20;95.10;;;;;;5011066;28;20456;-73
2022/05/18 07:19:19;;;;;;;12.13;5.63;;;22.30;95.20;;;;;;5009988;28;20048;-75
2022/05/18 07:21:45;;;;;;;9.20;5.45;;;22.50;94.50;;;;;;5011147;28;20025;-72
2022/05/18 07:24:11;;;;;;;11.88;5.72;;;22.60;94.40;;;;;;4994210;28;20041;-73
2022/05/18 07:26:37;;;;;;;7.95;4.95;;;22.80;94.20;;;;;;5011158;28;20088;-74
2022/05/18 07:29:05;;;;;;;11.10;4.63;;;22.70;94.30;;;;;;4993580;28;20034;-72
2022/05/18 07:32:08;;;;;;;10.48;4.97;;;22.80;94.30;;;;;;5010786;28;20463;-72
2022/05/18 07:34:16;;;;;;;10.63;6.03;;;22.80;93.80;;;;;;5010667;28;20034;-71
2022/05/18 07:36:41;;;;;;;11.20;5.60;;;22.80;94.20;;;;;;5009633;28;20443;-71
2022/05/18 07:39:07;;;;;;;9.68;5.57;;;22.80;94.10;;;;;;5011051;28;20116;-72
2022/05/18 07:41:36;;;;;;;10.55;5.20;;;22.80;94.00;;;;;;5026059;28;20044;-72
2022/05/18 07:44:01;;;;;;;8.43;4.75;;;22.90;93.90;;;;;;5010531;28;20164;-72
2022/05/18 07:46:27;;;;;;;11.40;4.93;;;23.10;93.90;;;;;;5009287;28;20120;-73
2022/05/18 07:48:52;;;;;;;8.95;4.50;;;23.20;93.70;;;;;;5010497;28;20168;-70
2022/05/18 07:51:18;;;;;;;8.50;4.85;;;23.40;94.00;;;;;;5011163;28;20026;-72
2022/05/18 07:53:43;;;;;;;6.10;4.47;;;23.60;93.70;;;;;;5010596;28;20041;-74
2022/05/18 07:56:09;;;;;;;6.10;4.70;;;23.80;93.00;;;;;;5010410;28;20037;-73
2022/05/18 07:58:35;;;;;;;8.10;4.22;;;23.90;93.00;;;;;;5010340;28;20495;-78
2022/05/18 08:01:00;;;;;;;7.75;4.13;;;24.10;93.00;;;;;;5010256;28;20065;-75
2022/05/18 08:03:26;;;;;;;7.55;4.90;;;24.30;92.90;;;;;;5010456;28;20034;-73
2022/05/18 08:05:52;;;;;;;7.85;3.70;;;24.50;92.50;;;;;;5010642;28;20129;-74
2022/05/18 08:08:20;;;;;;;4.70;3.35;;;24.90;91.40;;;;;;5025961;28;20121;-86
2022/05/18 08:16:16;;;;;;;4.63;2.90;;;26.80;87.70;;;;;;5010785;28;20671;-85
2022/05/18 08:18:42;;;;;;;6.90;3.45;;;28.00;85.20;;;;;;4993062;28;20471;-83
2022/05/18 08:21:08;;;;;;;7.88;3.03;;;28.90;83.90;;;;;;5010911;28;20420;-83
2022/05/18 08:23:33;;;;;;;6.00;2.90;;;29.70;80.50;;;;;;5010554;28;20213;-81
2022/05/18 08:26:01;;;;;;;7.32;2.55;;;30.40;76.10;;;;;;5010336;28;20514;-80
2022/05/18 08:28:27;;;;;;;9.55;2.72;;;31.20;75.30;;;;;;5010496;28;20022;-78
2022/05/18 08:30:54;;;;;;;5.40;2.38;;;31.50;71.50;;;;;;4993642;28;20029;-79
2022/05/18 08:33:20;;;;;;;8.00;2.72;;;31.90;70.00;;;;;;5026951;28;20022;-77
2022/05/18 08:35:46;;;;;;;6.55;2.35;;;32.40;67.30;;;;;;5009990;28;20471;-77
2022/05/18 08:38:14;;;;;;;3.33;2.30;;;32.90;65.60;;;;;;5010052;28;20088;-79
2022/05/18 08:40:49;;;;;;;6.70;2.85;;;32.90;63.60;;;;;;4992652;28;20532;-81
2022/05/18 08:43:23;;;;;;;6.15;2.78;;;33.20;61.70;;;;;;5010273;28;20111;-79
2022/05/18 08:45:59;;;;;;;2.97;2.03;;;33.80;60.40;;;;;;5009920;28;20176;-79
2022/05/18 08:48:56;;;;;;;3.58;2.28;;;34.10;59.50;;;;;;5010465;28;20310;-78
2022/05/18 08:51:45;;;;;;;6.65;2.42;;;34.00;56.90;;;;;;4995770;28;20042;-80
2022/05/18 08:54:47;;;;;;;6.03;2.42;;;33.90;56.70;;;;;;4965211;28;20038;-76
2022/05/18 08:57:43;;;;;;;4.47;2.03;;;34.40;57.60;;;;;;4965581;28;20030;-77
2022/05/18 09:00:31;;;;;;;5.03;2.53;;;34.60;55.20;;;;;;4969174;28;20033;-76
2022/05/18 09:03:21;;;;;;;3.77;2.40;;;34.40;54.70;;;;;;5009713;28;20483;-76
2022/05/18 09:06:16;;;;;;;3.70;2.45;;;34.40;55.10;;;;;;5012237;28;20120;-80
2022/05/18 09:11:51;;;;;;;6.82;3.40;;;34.90;52.70;;;;;;5021483;28;20048;-79
2022/05/18 09:14:39;;;;;;;8.85;2.83;;;35.00;51.80;;;;;;5000179;28;20116;-80
2022/05/18 09:17:57;;;;;;;5.80;2.92;;;35.40;53.10;;;;;;4997131;28;20386;-80
2022/05/18 09:20:26;;;;;;;5.85;2.53;;;34.70;52.10;;;;;;5000419;28;20125;-77
2022/05/18 09:23:40;;;;;;;6.28;2.53;;;34.70;52.20;;;;;;4999208;28;20168;-79
2022/05/18 09:26:12;;;;;;;4.28;2.50;;;35.90;51.70;;;;;;5014200;28;20353;-80
2022/05/18 09:28:58;;;;;;;5.47;2.90;;;35.90;51.20;;;;;;4993562;28;20252;-80
2022/05/18 09:31:42;;;;;;;5.60;2.55;;;35.90;51.80;;;;;;4993767;28;20368;-76
2022/05/18 09:34:17;;;;;;;4.03;2.40;;;35.30;50.80;;;;;;4993473;28;20102;-77
2022/05/18 09:37:17;;;;;;;9.77;2.42;;;35.60;52.00;;;;;;5008990;28;20065;-78
2022/05/18 09:40:12;;;;;;;9.45;2.78;;;35.50;51.60;;;;;;5025225;28;20093;-77
2022/05/18 09:42:44;;;;;;;6.35;2.60;;;35.10;51.20;;;;;;4993580;28;20041;-77
2022/05/18 09:45:18;;;;;;;6.75;2.45;;;33.80;52.10;;;;;;4993280;28;20030;-77
2022/05/18 09:47:51;;;;;;;3.17;2.22;;;32.80;53.70;;;;;;4992286;28;20054;-78
2022/05/18 09:50:17;;;;;;;8.38;2.70;;;32.20;54.80;;;;;;4993452;28;20038;-76
2022/05/18 09:52:45;;;;;;;6.88;2.78;;;31.80;55.90;;;;;;4993339;28;20035;-75
2022/05/18 09:55:14;;;;;;;4.72;2.40;;;31.50;56.60;;;;;;4993510;28;20038;-74
2022/05/18 09:58:01;;;;;;;5.40;2.75;;;31.60;56.80;;;;;;4992131;28;20041;-78
2022/05/18 10:00:31;;;;;;;3.63;2.50;;;31.30;57.20;;;;;;4993589;28;20046;-75
2022/05/18 10:09:13;;;;;;;4.45;2.53;;;31.00;59.10;;;;;;4992798;28;20038;-76
2022/05/18 10:11:39;;;;;;;7.00;2.72;;;30.80;59.00;;;;;;4993425;28;20088;-78
2022/05/18 10:14:06;;;;;;;4.55;2.85;;;30.70;59.10;;;;;;4992885;28;20221;-75
2022/05/18 10:16:47;;;;;;;11.05;3.55;;;30.70;59.00;;;;;;4996597;28;20133;-77
2022/05/18 10:19:33;;;;;;;7.60;2.65;;;30.30;59.10;;;;;;5010861;28;20387;-76
2022/05/18 10:22:03;;;;;;;5.65;3.08;;;30.50;59.60;;;;;;4995093;28;20128;-82
2022/05/18 10:24:33;;;;;;;4.90;2.65;;;30.50;59.80;;;;;;5011749;28;20040;-85
2022/05/18 10:27:39;;;;;;;2.42;2.10;;;30.50;59.40;;;;;;5011573;28;20057;-84
2022/05/18 10:30:35;;;;;;;7.70;2.53;;;30.40;57.90;;;;;;5012832;28;20137;-83
2022/05/18 10:33:18;;;;;;;12.73;2.65;;;30.40;57.70;;;;;;5010692;28;20369;-78
2022/05/18 10:35:50;;;;;;;2.92;2.30;;;30.20;57.30;;;;;;5012140;28;20102;-84
2022/05/18 10:38:25;;;;;;;4.68;2.88;;;30.20;56.40;;;;;;4995346;28;20416;-83
2022/05/18 10:41:09;;;;;;;10.73;3.88;;;30.30;56.70;;;;;;5012378;28;20041;-81
2022/05/18 10:44:00;;;;;;;3.05;1.90;;;30.30;56.40;;;;;;5010808;28;20109;-80
2022/05/18 10:46:34;;;;;;;7.50;2.75;;;30.40;56.50;;;;;;4988722;28;20121;-80
2022/05/18 10:49:07;;;;;;;3.90;2.38;;;30.30;57.70;;;;;;5012033;28;20528;-78
2022/05/18 10:51:44;;;;;;;4.65;2.38;;;30.20;57.00;;;;;;5012446;28;20072;-81
2022/05/18 10:54:16;;;;;;;4.22;2.08;;;30.20;57.30;;;;;;5011874;28;20388;-76
2022/05/18 10:56:43;;;;;;;5.60;2.28;;;30.40;56.90;;;;;;5011274;28;20065;-74
2022/05/18 10:59:20;;;;;;;3.90;2.15;;;30.20;56.60;;;;;;4993838;28;20034;-72
2022/05/18 11:01:50;;;;;;;;;;;30.20;57.50;;;;;;5011584;28;20418;-74
2022/05/18 11:04:26;;;;;;;9.30;2.65;;;29.90;58.00;;;;;;5011436;28;19924;-75
2022/05/18 11:06:54;;;;;;;7.50;2.63;;;29.60;58.30;;;;;;5011399;28;20375;-73
2022/05/18 11:09:25;;;;;;;7.18;2.60;;;29.60;58.40;;;;;;4994302;28;20022;-75
2022/05/18 11:12:16;;;;;;;5.40;2.22;;;29.60;58.70;;;;;;5011510;28;20030;-74
2022/05/18 11:15:03;;;;;;;6.68;2.70;;;29.70;58.50;;;;;;5011214;28;20068;-78
2022/05/18 11:17:51;;;;;;;4.55;2.05;;;29.80;58.90;;;;;;5010542;28;20049;-79
2022/05/18 11:20:41;;;;;;;4.57;2.20;;;29.70;58.60;;;;;;5011198;28;20033;-75
2022/05/18 11:23:18;;;;;;;8.50;2.50;;;29.70;58.70;;;;;;5011118;28;20044;-78
2022/05/18 11:26:25;;;;;;;4.20;2.00;;;29.60;58.60;;;;;;5011011;28;20121;-80
2022/05/18 11:29:09;;;;;;;4.57;2.20;;;29.50;58.40;;;;;;5010665;28;20034;-77
2022/05/18 11:31:56;;;;;;;7.75;2.60;;;29.70;59.20;;;;;;5010941;28;20036;-78
2022/05/18 11:34:40;;;;;;;;;;;29.80;59.20;;;;;;5011263;28;20471;-79
2022/05/18 11:37:23;;;;;;;4.68;2.30;;;29.80;59.10;;;;;;5011095;28;19974;-77
2022/05/18 11:40:18;;;;;;;12.13;7.80;;;29.70;58.20;;;;;;5010737;28;20061;-80
2022/05/18 11:43:30;;;;;;;4.40;2.20;;;29.70;57.20;;;;;;5010810;28;20443;-78
2022/05/18 11:46:17;;;;;;;4.45;2.33;;;29.70;57.80;;;;;;5010872;28;20395;-80
2022/05/18 11:49:01;;;;;;;4.32;2.10;;;29.70;58.40;;;;;;5010608;28;20026;-79
2022/05/18 11:52:08;;;;;;;6.28;2.33;;;29.80;59.10;;;;;;5011353;28;20348;-81
2022/05/18 11:54:44;;;;;;;4.65;2.50;;;29.60;59.60;;;;;;5004892;28;20037;-84
2022/05/18 11:57:27;;;;;;;5.88;2.60;;;29.70;58.30;;;;;;5011163;28;20079;-81
2022/05/18 12:00:12;;;;;;;5.45;2.20;;;29.70;57.50;;;;;;5009693;28;20026;-83
2022/05/18 12:02:57;;;;;;;5.95;2.95;;;29.80;57.50;;;;;;5010552;28;20054;-80
2022/05/18 12:05:51;;;;;;;7.57;2.33;;;29.70;57.50;;;;;;5010555;28;20076;-80
2022/05/18 12:08:37;;;;;;;4.47;1.83;;;29.70;56.50;;;;;;5010425;28;20121;-81
2022/05/18 12:11:36;;;;;;;4.97;1.83;;;29.60;56.80;;;;;;5010268;28;20543;-79
2022/05/18 12:14:15;;;;;;;3.25;1.98;;;29.70;57.30;;;;;;5010533;28;20496;-77
2022/05/18 12:17:30;;;;;;;3.60;2.10;;;29.70;56.60;;;;;;5010647;28;20054;-80
2022/05/18 12:20:05;;;;;;;6.68;2.47;;;29.50;56.70;;;;;;5001319;28;20038;-81
2022/05/18 12:22:41;;;;;;;3.50;1.70;;;29.30;57.00;;;;;;5010550;28;20030;-81
2022/05/18 12:25:13;;;;;;;4.10;2.30;;;29.40;56.90;;;;;;5010473;28;20026;-81
2022/05/18 12:27:39;;;;;;;4.25;2.30;;;29.50;56.90;;;;;;5011590;28;20465;-87
2022/05/18 12:30:08;;;;;;;3.95;2.00;;;29.40;57.10;;;;;;5011251;28;20036;-82
2022/05/18 12:32:35;;;;;;;7.68;2.20;;;29.60;57.40;;;;;;5010145;28;20064;-81
2022/05/18 12:35:11;;;;;;;3.13;2.07;;;29.60;58.30;;;;;;5010300;28;20377;-81
2022/05/18 12:38:08;;;;;;;4.80;1.95;;;29.60;57.70;;;;;;5009687;28;20712;-81
2022/05/18 12:40:46;;;;;;;4.75;1.98;;;29.70;57.20;;;;;;5011938;28;20034;-79
2022/05/18 12:43:24;;;;;;;3.30;1.75;;;29.60;56.80;;;;;;5013013;28;20022;-80
2022/05/18 12:45:56;;;;;;;3.92;1.90;;;29.40;57.00;;;;;;5014208;28;20022;-81
2022/05/18 12:48:35;;;;;;;5.53;2.22;;;29.20;56.20;;;;;;5014249;28;20022;-80
2022/05/18 12:51:22;;;;;;;2.55;1.67;;;29.10;56.40;;;;;;4996458;28;20041;-80
2022/05/18 12:53:51;;;;;;;3.75;1.85;;;29.10;56.20;;;;;;5013788;28;20045;-83
2022/05/18 12:56:21;;;;;;;4.32;2.30;;;29.00;56.00;;;;;;5013929;28;20033;-81
2022/05/18 12:58:59;;;;;;;4.68;2.70;;;28.90;55.90;;;;;;5013852;28;20045;-83
2022/05/18 13:01:26;;;;;;;;;;;28.90;55.90;;;;;;5014198;28;20617;-81
2022/05/18 13:04:01;;;;;;;4.45;1.60;;;28.90;56.20;;;;;;5014058;28;19972;-81
2022/05/18 13:06:36;;;;;;;7.20;1.92;;;28.90;55.90;;;;;;5013961;28;20460;-80
2022/05/18 13:09:23;;;;;;;3.42;1.95;;;29.00;56.00;;;;;;5013622;28;20525;-81
2022/05/18 13:11:53;;;;;;;5.78;2.00;;;28.90;56.40;;;;;;5013662;28;20044;-82
2022/05/18 13:14:34;;;;;;;3.25;1.85;;;28.80;56.40;;;;;;5013450;28;20056;-82
2022/05/18 13:16:59;;;;;;;4.38;1.95;;;28.70;56.60;;;;;;5013339;28;20562;-82
2022/05/18 13:19:35;;;;;;;8.30;3.30;;;28.70;56.70;;;;;;5013273;28;20045;-83
2022/05/18 13:22:16;;;;;;;6.07;2.25;;;28.70;56.90;;;;;;5013374;28;20120;-81